createdAt,value
2017-11-12T00:00:57.913Z,8.09
2017-11-12T00:03:25.374Z,8.20
2017-11-12T00:05:52.829Z,8.19
2017-11-12T00:08:20.362Z,8.25
2017-11-12T00:10:47.813Z,8.36
2017-11-12T00:13:15.267Z,8.49
2017-11-12T00:15:42.750Z,8.53
2017-11-12T00:18:10.227Z,8.57
2017-11-12T00:20:37.718Z,8.82
2017-11-12T00:23:05.239Z,9.35
2017-11-12T00:25:32.699Z,9.40
2017-11-12T00:28:00.179Z,9.40
2017-11-12T00:30:27.629Z,9.43
2017-11-12T00:32:55.082Z,9.56
2017-11-12T00:35:22.565Z,9.75
2017-11-12T00:37:50.023Z,9.73
2017-11-12T00:40:17.517Z,9.81
2017-11-12T00:42:44.988Z,9.87
2017-11-12T00:45:12.554Z,9.95
2017-11-12T00:47:40.007Z,9.95
2017-11-12T00:50:07.453Z,10.01
2017-11-12T00:52:34.969Z,9.95
2017-11-12T00:55:02.419Z,9.89
2017-11-12T00:57:29.888Z,9.95
2017-11-12T00:59:57.341Z,9.95
2017-11-12T01:02:24.819Z,10.03
2017-11-12T01:04:52.275Z,9.96
2017-11-12T01:07:19.742Z,9.94
2017-11-12T01:09:47.199Z,10.07
2017-11-12T01:12:14.668Z,10.05
2017-11-12T01:14:42.167Z,10.05
2017-11-12T01:17:09.630Z,10.12
2017-11-12T01:19:37.088Z,10.07
2017-11-12T01:22:04.540Z,10.09
2017-11-12T01:24:32.030Z,10.16
2017-11-12T01:26:59.498Z,10.07
2017-11-12T01:29:26.981Z,10.10
2017-11-12T01:31:54.449Z,10.07
2017-11-12T01:34:21.888Z,10.05
2017-11-12T01:36:49.360Z,10.07
2017-11-12T01:39:16.810Z,10.12
2017-11-12T01:41:44.318Z,10.04
2017-11-12T01:44:11.830Z,10.07
2017-11-12T01:46:39.286Z,9.96
2017-11-12T01:49:06.730Z,9.95
2017-11-12T01:51:34.223Z,9.89
2017-11-12T01:54:01.678Z,9.90
2017-11-12T01:56:29.139Z,9.84
2017-11-12T01:58:56.618Z,9.92
2017-11-12T02:01:24.075Z,9.92
2017-11-12T02:03:51.534Z,9.87
2017-11-12T02:06:18.993Z,9.94
2017-11-12T02:08:46.456Z,9.92
2017-11-12T02:11:14.000Z,9.90
2017-11-12T02:13:41.491Z,9.79
2017-11-12T02:16:08.937Z,9.82
2017-11-12T02:18:36.416Z,9.61
2017-11-12T02:21:03.957Z,9.74
2017-11-12T02:23:31.426Z,9.62
2017-11-12T02:25:58.929Z,9.45
2017-11-12T02:28:26.411Z,9.39
2017-11-12T02:30:53.875Z,9.35
2017-11-12T02:33:21.358Z,9.40
2017-11-12T02:35:48.888Z,9.49
2017-11-12T02:38:16.393Z,9.47
2017-11-12T02:40:43.871Z,9.27
2017-11-12T02:43:11.342Z,9.28
2017-11-12T02:45:38.870Z,9.35
2017-11-12T02:48:06.361Z,9.24
2017-11-12T02:50:33.831Z,9.25
2017-11-12T02:53:01.300Z,9.27
2017-11-12T02:55:28.786Z,9.13
2017-11-12T02:57:56.266Z,9.20
2017-11-12T03:00:23.726Z,9.18
2017-11-12T03:02:51.210Z,9.11
2017-11-12T03:05:18.685Z,9.07
2017-11-12T03:07:46.152Z,9.14
2017-11-12T03:10:13.624Z,9.17
2017-11-12T03:12:41.093Z,9.06
2017-11-12T03:15:08.568Z,9.04
2017-11-12T03:17:36.036Z,9.06
2017-11-12T03:20:03.524Z,9.07
2017-11-12T03:22:30.967Z,9.07
2017-11-12T03:24:58.431Z,9.01
2017-11-12T03:27:25.947Z,8.95
2017-11-12T03:29:53.434Z,9.00
2017-11-12T03:32:20.886Z,9.01
2017-11-12T03:34:48.354Z,8.86
2017-11-12T03:37:15.815Z,8.84
2017-11-12T03:39:43.277Z,8.80
2017-11-12T03:42:10.742Z,8.71
2017-11-12T03:44:38.215Z,8.77
2017-11-12T03:47:05.657Z,8.67
2017-11-12T03:49:33.142Z,8.70
2017-11-12T03:52:00.598Z,8.67
2017-11-12T03:54:28.060Z,8.65
2017-11-12T03:56:55.539Z,8.63
2017-11-12T03:59:23.008Z,8.64
2017-11-12T04:01:50.441Z,8.61
2017-11-12T04:04:17.908Z,8.56
2017-11-12T04:06:45.367Z,8.53
2017-11-12T04:09:12.834Z,8.52
2017-11-12T04:11:40.415Z,8.42
2017-11-12T04:14:07.892Z,8.37
2017-11-12T04:16:35.393Z,8.37
2017-11-12T04:19:02.878Z,8.42
2017-11-12T04:21:30.378Z,8.40
2017-11-12T04:23:57.851Z,8.37
2017-11-12T04:26:25.325Z,8.40
2017-11-12T04:28:52.805Z,8.30
2017-11-12T04:31:20.252Z,8.24
2017-11-12T04:33:47.731Z,8.24
2017-11-12T04:36:15.197Z,8.21
2017-11-12T04:38:42.714Z,8.14
2017-11-12T04:41:10.279Z,8.13
2017-11-12T04:43:37.752Z,8.18
2017-11-12T04:46:05.211Z,8.18
2017-11-12T04:48:32.694Z,8.22
2017-11-12T04:51:00.150Z,8.26
2017-11-12T04:53:27.602Z,8.22
2017-11-12T04:55:55.085Z,8.19
2017-11-12T04:58:22.537Z,8.14
2017-11-12T05:00:49.994Z,8.16
2017-11-12T05:03:17.463Z,8.23
2017-11-12T05:05:44.937Z,8.25
2017-11-12T05:08:12.397Z,8.25
2017-11-12T05:10:39.881Z,8.19
2017-11-12T05:13:07.346Z,8.15
2017-11-12T05:15:34.795Z,8.20
2017-11-12T05:18:02.265Z,8.23
2017-11-12T05:20:29.705Z,8.20
2017-11-12T05:22:57.158Z,8.20
2017-11-12T05:25:24.624Z,8.23
2017-11-12T05:27:52.081Z,8.23
2017-11-12T05:30:19.549Z,8.19
2017-11-12T05:32:47.031Z,8.20
2017-11-12T05:35:14.498Z,8.23
2017-11-12T05:37:41.947Z,8.17
2017-11-12T05:40:09.413Z,8.24
2017-11-12T05:42:36.886Z,8.25
2017-11-12T05:45:04.349Z,8.17
2017-11-12T05:47:31.813Z,8.24
2017-11-12T05:49:59.279Z,8.16
2017-11-12T05:52:26.735Z,8.03
2017-11-12T05:54:54.245Z,8.17
2017-11-12T05:57:21.699Z,8.12
2017-11-12T05:59:49.150Z,8.08
2017-11-12T06:02:16.644Z,8.17
2017-11-12T06:04:44.092Z,8.04
2017-11-12T06:07:11.549Z,8.05
2017-11-12T06:09:39.010Z,8.19
2017-11-12T06:12:06.456Z,8.21
2017-11-12T06:14:33.929Z,8.15
2017-11-12T06:17:01.402Z,8.05
2017-11-12T06:19:28.879Z,8.08
2017-11-12T06:21:56.344Z,8.01
2017-11-12T06:24:23.815Z,8.02
2017-11-12T06:26:51.286Z,7.91
2017-11-12T06:29:19.162Z,7.88
2017-11-12T06:31:46.635Z,7.96
2017-11-12T06:34:14.110Z,8.00
2017-11-12T06:36:41.602Z,7.97
2017-11-12T06:39:09.070Z,7.86
2017-11-12T06:41:36.538Z,8.01
2017-11-12T06:44:04.023Z,8.02
2017-11-12T06:46:31.476Z,7.95
2017-11-12T06:48:58.936Z,8.07
2017-11-12T06:51:26.409Z,8.02
2017-11-12T06:53:53.894Z,7.94
2017-11-12T06:56:21.338Z,7.94
2017-11-12T06:58:48.787Z,7.92
2017-11-12T07:01:16.368Z,8.01
2017-11-12T07:03:43.809Z,7.95
2017-11-12T07:06:11.262Z,8.02
2017-11-12T07:08:38.732Z,7.94
2017-11-12T07:11:06.253Z,7.82
2017-11-12T07:13:33.706Z,7.85
2017-11-12T07:16:01.190Z,7.98
2017-11-12T07:18:28.644Z,8.23
2017-11-12T07:20:56.102Z,8.31
2017-11-12T07:23:23.593Z,8.32
2017-11-12T07:25:51.120Z,8.30
2017-11-12T07:28:20.030Z,8.27
2017-11-12T07:30:47.523Z,8.28
2017-11-12T07:33:14.981Z,8.39
2017-11-12T07:35:42.443Z,8.66
2017-11-12T07:38:09.944Z,8.58
2017-11-12T07:40:37.438Z,8.40
2017-11-12T07:43:04.897Z,8.42
2017-11-12T07:45:32.600Z,8.49
2017-11-12T07:48:00.060Z,8.41
2017-11-12T07:50:27.567Z,8.39
2017-11-12T07:52:55.053Z,8.41
2017-11-12T07:55:22.526Z,8.32
2017-11-12T07:57:50.003Z,8.41
2017-11-12T08:00:17.500Z,8.21
2017-11-12T08:02:44.973Z,8.11
2017-11-12T08:05:12.443Z,8.36
2017-11-12T08:07:39.923Z,8.37
2017-11-12T08:10:07.395Z,8.38
2017-11-12T08:12:34.862Z,8.38
2017-11-12T08:15:02.427Z,8.51
2017-11-12T08:17:29.878Z,8.53
2017-11-12T08:19:57.361Z,8.42
2017-11-12T08:22:24.935Z,8.64
2017-11-12T08:24:52.529Z,8.45
2017-11-12T08:27:20.033Z,8.39
2017-11-12T08:29:47.490Z,8.31
2017-11-12T08:32:14.990Z,8.21
2017-11-12T08:34:42.443Z,8.23
2017-11-12T08:37:09.971Z,8.31
2017-11-12T08:39:37.437Z,8.38
2017-11-12T08:42:04.957Z,8.43
2017-11-12T08:44:32.453Z,8.34
2017-11-12T08:46:59.915Z,8.25
2017-11-12T08:49:27.384Z,8.44
2017-11-12T08:51:54.864Z,8.36
2017-11-12T08:54:22.410Z,8.45
2017-11-12T08:56:49.903Z,8.45
2017-11-12T08:59:17.402Z,8.50
2017-11-12T09:01:44.887Z,8.61
2017-11-12T09:04:12.385Z,8.61
2017-11-12T09:06:39.866Z,8.71
2017-11-12T09:09:07.342Z,8.77
2017-11-12T09:11:34.804Z,8.78
2017-11-12T09:14:02.293Z,8.93
2017-11-12T09:16:29.759Z,8.80
2017-11-12T09:18:57.341Z,8.69
2017-11-12T09:21:24.855Z,8.66
2017-11-12T09:23:52.332Z,8.66
2017-11-12T09:26:19.809Z,8.69
2017-11-12T09:28:47.301Z,8.73
2017-11-12T09:31:14.774Z,8.88
2017-11-12T09:33:42.253Z,8.88
2017-11-12T09:36:10.472Z,8.85
2017-11-12T09:38:37.929Z,8.85
2017-11-12T09:41:05.422Z,8.98
2017-11-12T09:43:32.895Z,9.00
2017-11-12T09:46:00.472Z,9.00
2017-11-12T09:48:27.949Z,8.98
2017-11-12T09:50:55.441Z,9.09
2017-11-12T09:53:22.944Z,8.99
2017-11-12T09:55:50.459Z,9.10
2017-11-12T09:58:17.927Z,9.19
2017-11-12T10:00:45.426Z,9.29
2017-11-12T10:03:12.882Z,9.35
2017-11-12T10:05:40.383Z,9.48
2017-11-12T10:08:07.910Z,9.53
2017-11-12T10:10:35.430Z,9.63
2017-11-12T10:13:02.927Z,9.71
2017-11-12T10:15:30.386Z,9.78
2017-11-12T10:17:57.856Z,9.87
2017-11-12T10:20:25.324Z,9.90
2017-11-12T10:22:52.804Z,9.99
2017-11-12T10:25:21.235Z,10.06
2017-11-12T10:27:48.702Z,10.21
2017-11-12T10:30:16.797Z,10.24
2017-11-12T10:32:44.243Z,10.23
2017-11-12T10:35:11.746Z,10.24
2017-11-12T10:37:39.274Z,10.22
2017-11-12T10:40:06.851Z,10.25
2017-11-12T10:42:34.358Z,10.14
2017-11-12T10:45:01.887Z,10.14
2017-11-12T10:47:29.383Z,10.12
2017-11-12T10:49:57.152Z,10.10
2017-11-12T10:52:24.701Z,10.07
2017-11-12T10:54:52.196Z,10.00
2017-11-12T10:57:19.736Z,9.97
2017-11-12T10:59:47.209Z,9.94
2017-11-12T11:02:14.748Z,9.91
2017-11-12T11:04:42.209Z,9.82
2017-11-12T11:07:09.677Z,9.70
2017-11-12T11:09:37.150Z,9.80
2017-11-12T11:12:05.177Z,9.87
2017-11-12T11:14:32.674Z,9.88
2017-11-12T11:17:00.140Z,9.99
2017-11-12T11:19:27.634Z,10.02
2017-11-12T11:21:55.104Z,10.09
2017-11-12T11:24:22.590Z,10.06
2017-11-12T11:26:50.086Z,10.03
2017-11-12T11:29:17.554Z,9.98
2017-11-12T11:31:45.038Z,9.99
2017-11-12T11:34:12.533Z,9.90
2017-11-12T11:36:39.991Z,9.94
2017-11-12T11:39:07.496Z,9.96
2017-11-12T11:41:34.979Z,10.10
2017-11-12T11:44:02.454Z,10.02
2017-11-12T11:46:29.926Z,10.00
2017-11-12T11:48:57.416Z,10.00
2017-11-12T11:51:24.902Z,10.12
2017-11-12T11:53:52.403Z,10.02
2017-11-12T11:56:19.884Z,9.99
2017-11-12T11:58:47.368Z,9.90
2017-11-12T12:01:14.862Z,9.79
2017-11-12T12:03:42.422Z,9.77
2017-11-12T12:06:09.878Z,9.70
2017-11-12T12:08:37.364Z,9.55
2017-11-12T12:11:04.839Z,9.50
2017-11-12T12:13:32.307Z,9.52
2017-11-12T12:15:59.779Z,9.45
2017-11-12T12:18:27.288Z,9.34
2017-11-12T12:20:54.773Z,9.20
2017-11-12T12:23:22.258Z,9.17
2017-11-12T12:25:49.825Z,9.14
2017-11-12T12:28:17.276Z,9.14
2017-11-12T12:30:44.758Z,9.12
2017-11-12T12:33:12.227Z,9.12
2017-11-12T12:35:39.727Z,9.15
2017-11-12T12:38:07.236Z,9.13
2017-11-12T12:40:34.758Z,9.19
2017-11-12T12:43:02.256Z,9.18
2017-11-12T12:45:29.720Z,9.10
2017-11-12T12:47:57.209Z,9.01
2017-11-12T12:50:24.666Z,8.86
2017-11-12T12:52:52.611Z,8.76
2017-11-12T12:55:20.095Z,8.76
2017-11-12T12:57:47.568Z,8.76
2017-11-12T13:00:15.362Z,8.65
2017-11-12T13:02:43.014Z,8.54
2017-11-12T13:05:10.511Z,8.53
2017-11-12T13:07:37.968Z,8.55
2017-11-12T13:10:05.438Z,8.57
2017-11-12T13:12:32.915Z,8.47
2017-11-12T13:15:00.409Z,8.44
2017-11-12T13:17:27.899Z,8.30
2017-11-12T13:19:55.381Z,8.25
2017-11-12T13:22:22.862Z,8.22
2017-11-12T13:24:50.359Z,8.18
2017-11-12T13:27:17.847Z,8.28
2017-11-12T13:29:45.310Z,8.18
2017-11-12T13:32:12.835Z,8.04
2017-11-12T13:34:40.330Z,8.07
2017-11-12T13:37:07.804Z,8.01
2017-11-12T13:39:35.370Z,8.00
2017-11-12T13:42:02.918Z,7.93
2017-11-12T13:44:30.394Z,7.90
2017-11-12T13:46:57.873Z,7.93
2017-11-12T13:49:25.357Z,8.02
2017-11-12T13:51:52.866Z,8.02
2017-11-12T13:54:20.368Z,7.93
2017-11-12T13:56:47.834Z,7.93
2017-11-12T13:59:15.315Z,7.93
2017-11-12T14:01:42.802Z,7.85
2017-11-12T14:04:10.297Z,7.96
2017-11-12T14:06:37.792Z,7.83
2017-11-12T14:09:05.295Z,7.81
2017-11-12T14:11:32.783Z,7.80
2017-11-12T14:14:00.263Z,7.77
2017-11-12T14:16:27.749Z,7.84
2017-11-12T14:18:55.215Z,7.81
2017-11-12T14:21:22.693Z,7.75
2017-11-12T14:23:50.169Z,7.72
2017-11-12T14:26:17.636Z,7.67
2017-11-12T14:28:45.098Z,7.74
2017-11-12T14:31:12.587Z,7.71
2017-11-12T14:33:40.037Z,7.74
2017-11-12T14:36:07.523Z,7.70
2017-11-12T14:38:35.027Z,7.65
2017-11-12T14:41:02.499Z,7.63
2017-11-12T14:43:29.984Z,7.57
2017-11-12T14:45:57.475Z,7.48
2017-11-12T14:48:24.938Z,7.56
2017-11-12T14:50:52.490Z,7.53
2017-11-12T14:53:19.986Z,7.52
2017-11-12T14:55:48.464Z,7.48
2017-11-12T14:58:15.938Z,7.48
2017-11-12T15:00:43.420Z,7.54
2017-11-12T15:03:10.885Z,7.49
2017-11-12T15:05:38.357Z,7.49
2017-11-12T15:08:05.849Z,7.47
2017-11-12T15:10:33.330Z,7.47
2017-11-12T15:13:00.849Z,7.49
2017-11-12T15:15:28.354Z,7.38
2017-11-12T15:17:55.829Z,7.40
2017-11-12T15:20:23.308Z,7.34
2017-11-12T15:22:50.802Z,7.35
2017-11-12T15:25:18.280Z,7.31
2017-11-12T15:27:45.740Z,7.29
2017-11-12T15:32:46.874Z,7.18
2017-11-12T15:35:14.382Z,7.15
2017-11-12T15:37:41.846Z,7.18
2017-11-12T15:40:09.336Z,7.18
2017-11-12T15:42:36.859Z,7.16
2017-11-12T15:45:04.393Z,7.13
2017-11-12T15:47:31.934Z,7.10
2017-11-12T15:49:59.419Z,7.12
2017-11-12T15:52:26.895Z,7.09
2017-11-12T15:54:54.408Z,7.12
2017-11-12T15:59:55.778Z,7.19
2017-11-12T16:02:23.292Z,7.11
2017-11-12T16:04:50.790Z,7.09
2017-11-12T16:07:18.260Z,7.07
2017-11-12T16:09:45.751Z,7.08
2017-11-12T16:12:13.228Z,7.15
2017-11-12T16:14:40.707Z,7.13
2017-11-12T16:17:08.189Z,7.14
2017-11-12T16:19:35.656Z,7.18
2017-11-12T16:22:03.142Z,7.17
2017-11-12T16:24:30.632Z,7.22
2017-11-12T16:26:58.134Z,7.25
2017-11-12T16:29:25.617Z,7.24
2017-11-12T16:31:53.171Z,7.17
2017-11-12T16:34:20.667Z,7.21
2017-11-12T16:36:48.163Z,7.23
2017-11-12T16:39:15.637Z,7.27
2017-11-12T16:41:43.126Z,7.26
2017-11-12T16:44:10.620Z,7.15
2017-11-12T16:46:38.116Z,7.17
2017-11-12T16:49:05.768Z,7.18
2017-11-12T16:51:33.253Z,7.20
2017-11-12T16:54:00.758Z,7.14
2017-11-12T16:56:28.297Z,7.17
2017-11-12T16:58:55.839Z,7.20
2017-11-12T17:01:23.372Z,7.13
2017-11-12T17:03:50.874Z,7.18
2017-11-12T17:06:18.597Z,7.17
2017-11-12T17:08:46.110Z,7.14
2017-11-12T17:11:13.563Z,7.16
2017-11-12T17:13:41.028Z,7.12
2017-11-12T17:16:08.695Z,7.18
2017-11-12T17:18:36.233Z,7.12
2017-11-12T17:21:03.723Z,7.13
2017-11-12T17:23:31.434Z,7.13
2017-11-12T17:25:58.886Z,7.12
2017-11-12T17:28:26.356Z,7.10
2017-11-12T17:30:53.845Z,7.11
2017-11-12T17:33:21.344Z,7.23
2017-11-12T17:35:48.817Z,7.17
2017-11-12T17:38:16.330Z,7.14
2017-11-12T17:40:43.813Z,7.16
2017-11-12T17:45:43.989Z,7.14
2017-11-12T17:48:11.491Z,7.29
2017-11-12T17:50:38.965Z,7.18
2017-11-12T17:53:06.475Z,7.15
2017-11-12T17:55:33.964Z,7.10
2017-11-12T17:58:01.488Z,7.10
2017-11-12T18:00:29.011Z,7.14
2017-11-12T18:02:56.509Z,7.17
2017-11-12T18:05:23.995Z,7.08
2017-11-12T18:07:51.516Z,7.07
2017-11-12T18:10:19.003Z,7.06
2017-11-12T18:12:46.494Z,7.01
2017-11-12T18:15:14.032Z,6.97
2017-11-12T18:17:41.532Z,7.00
2017-11-12T18:20:09.204Z,6.96
2017-11-12T18:22:37.319Z,6.99
2017-11-12T18:25:04.852Z,6.98
2017-11-12T18:27:32.878Z,7.00
2017-11-12T18:30:00.473Z,7.05
2017-11-12T18:32:28.031Z,7.08
2017-11-12T18:34:55.580Z,7.11
2017-11-12T18:37:23.186Z,7.14
2017-11-12T18:39:50.698Z,7.15
2017-11-12T18:42:18.330Z,7.23
2017-11-12T18:44:45.840Z,7.28
2017-11-12T18:47:13.360Z,7.29
2017-11-12T18:49:40.882Z,7.23
2017-11-12T18:52:08.399Z,7.19
2017-11-12T18:54:36.027Z,7.19
2017-11-12T18:57:03.888Z,7.17
2017-11-12T19:02:45.743Z,7.15
2017-11-12T19:08:20.373Z,7.13
2017-11-12T19:10:47.888Z,7.04
2017-11-12T19:13:15.398Z,7.02
2017-11-12T19:15:43.818Z,6.98
2017-11-12T19:18:11.867Z,6.97
2017-11-12T19:20:40.367Z,7.02
2017-11-12T19:23:10.822Z,6.99
2017-11-12T19:25:48.310Z,6.97
2017-11-12T19:28:16.603Z,7.01
2017-11-12T19:30:44.096Z,7.00
2017-11-12T19:33:11.716Z,6.98
2017-11-12T19:35:39.209Z,6.98
2017-11-12T19:38:06.678Z,7.06
2017-11-12T19:40:34.149Z,7.06
2017-11-12T19:43:01.727Z,7.11
2017-11-12T19:45:29.256Z,7.13
2017-11-12T19:47:56.824Z,7.11
2017-11-12T19:50:24.328Z,7.11
2017-11-12T19:52:51.951Z,7.15
2017-11-12T19:55:19.732Z,7.10
2017-11-12T19:57:47.342Z,7.07
2017-11-12T20:00:14.846Z,7.06
2017-11-12T20:02:43.749Z,7.08
2017-11-12T20:05:11.310Z,7.17
2017-11-12T20:07:39.246Z,7.15
2017-11-12T20:10:06.812Z,7.17
2017-11-12T20:12:34.293Z,7.26
2017-11-12T20:15:01.883Z,7.30
2017-11-12T20:17:29.471Z,7.37
2017-11-12T20:19:56.976Z,7.45
2017-11-12T20:22:24.506Z,7.49
2017-11-12T20:24:52.103Z,7.49
2017-11-12T20:27:19.637Z,7.53
2017-11-12T20:29:48.124Z,7.57
2017-11-12T20:32:16.538Z,7.57
2017-11-12T20:34:44.059Z,7.52
2017-11-12T20:37:11.722Z,7.54
2017-11-12T20:39:39.834Z,7.49
2017-11-12T20:42:07.330Z,7.47
2017-11-12T20:44:34.881Z,7.45
2017-11-12T20:47:02.461Z,7.46
2017-11-12T20:49:29.976Z,7.53
2017-11-12T20:51:57.486Z,7.50
2017-11-12T20:54:25.016Z,7.57
2017-11-12T20:56:52.558Z,7.50
2017-11-12T20:59:20.037Z,7.55
2017-11-12T21:01:47.579Z,7.67
2017-11-12T21:04:15.102Z,7.59
2017-11-12T21:06:42.589Z,7.58
2017-11-12T21:09:10.111Z,7.62
2017-11-12T21:11:37.603Z,7.61
2017-11-12T21:14:05.053Z,7.72
2017-11-12T21:16:32.525Z,7.76
2017-11-12T21:19:00.109Z,7.83
2017-11-12T21:21:29.546Z,7.88
2017-11-12T21:23:57.056Z,7.84
2017-11-12T21:26:24.579Z,8.00
2017-11-12T21:28:56.913Z,8.01
2017-11-12T21:34:33.339Z,8.10
2017-11-12T21:37:05.241Z,8.11
2017-11-12T21:39:32.753Z,8.13
2017-11-12T21:42:00.279Z,8.28
2017-11-12T21:44:27.851Z,8.23
2017-11-12T21:46:55.380Z,8.23
2017-11-12T21:49:22.868Z,8.23
2017-11-12T21:51:50.390Z,8.29
2017-11-12T21:54:17.878Z,8.37
2017-11-12T21:56:45.398Z,8.37
2017-11-12T21:59:13.467Z,8.39
2017-11-12T22:01:40.948Z,8.45
2017-11-12T22:04:08.610Z,8.45
2017-11-12T22:06:36.082Z,8.47
2017-11-12T22:09:03.913Z,8.49
2017-11-12T22:11:31.395Z,8.47
2017-11-12T22:13:58.929Z,8.51
2017-11-12T22:16:26.479Z,8.48
2017-11-12T22:18:53.939Z,8.46
2017-11-12T22:21:21.459Z,8.41
2017-11-12T22:23:48.949Z,8.40
2017-11-12T22:26:16.478Z,8.38
2017-11-12T22:28:44.011Z,8.47
2017-11-12T22:31:11.491Z,8.43
2017-11-12T22:33:38.956Z,8.47
2017-11-12T22:36:06.451Z,8.43
2017-11-12T22:38:33.936Z,8.38
2017-11-12T22:41:01.488Z,8.40
2017-11-12T22:43:28.969Z,8.42
2017-11-12T22:45:56.435Z,8.43
2017-11-12T22:48:23.916Z,8.46
2017-11-12T22:50:51.412Z,8.40
2017-11-12T22:53:18.875Z,8.41
2017-11-12T22:55:46.317Z,8.43
2017-11-12T22:58:13.801Z,8.33
2017-11-12T23:00:41.307Z,8.35
2017-11-12T23:03:08.762Z,8.25
2017-11-12T23:05:36.277Z,8.24
2017-11-12T23:08:03.730Z,8.26
2017-11-12T23:10:31.185Z,8.13
2017-11-12T23:12:58.663Z,8.15
2017-11-12T23:15:26.140Z,8.13
2017-11-12T23:17:53.591Z,8.07
2017-11-12T23:20:21.071Z,7.98
2017-11-12T23:22:48.534Z,7.93
2017-11-12T23:25:16.033Z,7.93
2017-11-12T23:27:43.505Z,7.91
2017-11-12T23:30:10.989Z,7.89
2017-11-12T23:32:38.481Z,7.73
2017-11-12T23:35:05.967Z,7.69
2017-11-12T23:37:33.448Z,7.68
2017-11-12T23:40:00.907Z,7.55
2017-11-12T23:42:28.459Z,7.48
2017-11-12T23:44:55.920Z,7.49
2017-11-12T23:47:23.377Z,7.42
2017-11-12T23:49:50.841Z,7.32
2017-11-12T23:52:18.296Z,7.25
2017-11-12T23:54:45.748Z,7.20
2017-11-12T23:57:13.290Z,7.16
2017-11-12T23:59:41.614Z,7.08
